Time;durP1;ratioP1;P1;durP2;ratioP2;P2;SDS_P1;SDS_P2;PMS_P1;PMS_P2;Temp;Humidity;BMP_temperature;BMP_pressure;BME280_temperature;BME280_humidity;BME280_pressure;Samples;Min_cycle;Max_cycle;Signal;HPM_P1;HPM_P2
2023/08/07 00:00:23;;;;;;;0.40;0.40;;;12.20;99.90;;;11.53;100.00;97268.19;4943631;29;20462;-72
2023/08/07 00:02:50;;;;;;;0.87;0.67;;;12.10;99.90;;;11.59;100.00;97257.19;4934460;29;20469;-72
2023/08/07 00:05:17;;;;;;;0.90;0.30;;;12.10;99.90;;;11.55;100.00;97266.84;4937381;29;20487;-74
2023/08/07 00:07:45;;;;;;;0.63;0.40;;;12.10;99.90;;;11.49;100.00;97259.72;4941330;28;20467;-74
2023/08/07 00:10:13;;;;;;;0.60;0.50;;;12.10;99.90;;;11.39;100.00;97267.63;4943485;29;20471;-73
2023/08/07 00:12:40;;;;;;;0.70;0.50;;;12.00;99.90;;;11.40;100.00;97269.25;4937442;28;20451;-75
2023/08/07 00:15:09;;;;;;;0.50;0.30;;;12.00;99.90;;;11.40;100.00;97275.50;4936094;29;20555;-74
2023/08/07 00:17:38;;;;;;;0.40;0.37;;;12.00;99.90;;;11.45;100.00;97272.09;4946174;29;20463;-73
2023/08/07 00:20:07;;;;;;;0.50;0.30;;;12.00;99.90;;;11.34;100.00;97266.47;4938732;29;20464;-72
2023/08/07 00:22:35;;;;;;;0.53;0.50;;;11.90;99.90;;;11.28;100.00;97253.88;4935488;29;20449;-73
2023/08/07 00:25:02;;;;;;;0.40;0.30;;;12.00;99.90;;;11.36;100.00;97268.91;4947942;29;20564;-75
2023/08/07 00:27:29;;;;;;;0.40;0.40;;;11.90;99.90;;;11.28;100.00;97278.22;4946363;28;20457;-71
2023/08/07 00:29:57;;;;;;;0.50;0.40;;;11.90;99.90;;;11.31;100.00;97277.75;4942554;28;20451;-72
2023/08/07 00:32:24;;;;;;;0.50;0.50;;;11.90;99.90;;;11.32;100.00;97283.97;4940291;29;20673;-72
2023/08/07 00:34:53;;;;;;;0.93;0.50;;;11.90;99.90;;;11.32;100.00;97281.28;4951040;28;20469;-72
2023/08/07 00:37:20;;;;;;;0.67;0.43;;;11.90;99.90;;;11.23;100.00;97272.69;4945472;28;20467;-71
2023/08/07 00:39:47;;;;;;;0.80;0.60;;;11.80;99.90;;;11.28;100.00;97278.22;4948043;28;20471;-72
2023/08/07 00:42:15;;;;;;;0.40;0.30;;;11.80;99.90;;;11.30;100.00;97270.72;4952677;28;20826;-72
2023/08/07 00:44:42;;;;;;;1.20;0.40;;;11.90;99.90;;;11.20;100.00;97282.09;4941011;29;20468;-71
2023/08/07 00:47:09;;;;;;;0.40;0.33;;;11.80;99.90;;;11.27;100.00;97281.97;4933208;29;20482;-73
2023/08/07 00:49:37;;;;;;;0.30;0.30;;;11.80;99.90;;;11.14;100.00;97268.72;4934958;29;20452;-71
2023/08/07 00:52:06;;;;;;;0.60;0.50;;;11.80;99.90;;;11.21;100.00;97277.53;4948880;29;20454;-71
2023/08/07 00:54:34;;;;;;;0.60;0.60;;;11.80;99.90;;;11.15;100.00;97264.97;4939773;29;20947;-72
2023/08/07 00:57:15;;;;;;;1.00;0.40;;;11.80;99.90;;;11.18;100.00;97283.41;4939726;29;20474;-72
2023/08/07 00:59:42;;;;;;;0.53;0.40;;;11.80;99.90;;;11.34;100.00;97289.97;4939789;29;20498;-72
2023/08/07 01:02:12;;;;;;;0.47;0.40;;;11.80;99.90;;;11.13;100.00;97294.94;4938057;29;20500;-72
2023/08/07 01:04:39;;;;;;;1.50;0.40;;;11.70;99.90;;;11.22;100.00;97303.50;4937526;29;20528;-72
2023/08/07 01:07:09;;;;;;;0.60;0.40;;;11.70;99.90;;;11.19;100.00;97295.88;4944455;28;20480;-71
2023/08/07 01:09:36;;;;;;;0.60;0.40;;;11.70;99.90;;;11.18;100.00;97283.41;4944960;29;20451;-72
2023/08/07 01:12:15;;;;;;;0.60;0.50;;;11.70;99.90;;;11.18;100.00;97288.81;4943535;29;20466;-73
2023/08/07 01:14:52;;;;;;;1.20;0.50;;;11.70;99.90;;;11.11;100.00;97304.34;4938463;29;20554;-72
2023/08/07 01:17:23;;;;;;;0.40;0.30;;;11.70;99.90;;;10.98;100.00;97295.41;4940677;29;20453;-70
2023/08/07 01:19:52;;;;;;;0.87;0.50;;;11.60;99.90;;;10.98;100.00;97290.00;4950707;28;20454;-71
2023/08/07 01:22:21;;;;;;;0.77;0.50;;;11.60;99.90;;;11.03;100.00;97297.41;4936080;29;20912;-71
2023/08/07 01:24:51;;;;;;;0.50;0.50;;;11.60;99.90;;;10.97;100.00;97306.47;4941570;29;20465;-70
2023/08/07 01:27:37;;;;;;;2.30;0.60;;;11.60;99.90;;;11.02;100.00;97307.41;4938261;29;20506;-73
2023/08/07 01:30:17;;;;;;;1.73;0.60;;;11.60;99.90;;;10.97;100.00;97303.78;4944887;29;20474;-74
2023/08/07 01:32:54;;;;;;;0.67;0.50;;;11.50;99.90;;;10.95;100.00;97314.81;4937490;29;21218;-76
2023/08/07 01:35:26;;;;;;;0.70;0.60;;;11.50;99.90;;;11.05;100.00;97316.91;4940044;29;20455;-74
2023/08/07 01:37:57;;;;;;;0.60;0.50;;;11.60;99.90;;;11.04;100.00;97316.09;4958633;28;20507;-73
2023/08/07 01:40:25;;;;;;;0.83;0.80;;;11.60;99.90;;;11.09;100.00;97318.09;4939227;29;20461;-73
2023/08/07 01:42:52;;;;;;;0.50;0.40;;;11.60;99.90;;;10.94;100.00;97305.06;4941264;29;20466;-74
2023/08/07 01:45:25;;;;;;;1.10;0.83;;;11.60;99.90;;;10.94;100.00;97313.16;4950786;28;20961;-75
2023/08/07 01:47:53;;;;;;;0.87;0.50;;;11.50;99.90;;;10.91;100.00;97321.75;4947504;28;20466;-73
2023/08/07 01:50:20;;;;;;;1.70;0.80;;;11.50;99.90;;;11.00;100.00;97325.75;4947315;29;20465;-72
2023/08/07 01:52:48;;;;;;;0.60;0.50;;;11.50;99.90;;;11.01;100.00;97330.09;4946666;29;20465;-72
2023/08/07 01:55:18;;;;;;;0.70;0.70;;;11.60;99.90;;;10.90;100.00;97341.72;4956112;28;20456;-73
2023/08/07 01:57:45;;;;;;;1.60;0.70;;;11.50;99.90;;;11.01;100.00;97335.50;4948539;29;20445;-74
2023/08/07 02:00:14;;;;;;;1.20;0.77;;;11.50;99.90;;;10.98;100.00;97338.66;4948696;28;20524;-75
2023/08/07 02:02:41;;;;;;;0.90;0.83;;;11.50;99.90;;;10.99;100.00;97339.50;4945634;29;20491;-79
2023/08/07 02:05:08;;;;;;;0.60;0.60;;;11.50;99.90;;;10.95;100.00;97338.31;4944528;29;20461;-77
2023/08/07 02:07:36;;;;;;;0.80;0.60;;;11.50;99.90;;;10.86;100.00;97335.16;4940447;29;20454;-72
2023/08/07 02:10:03;;;;;;;1.53;0.80;;;11.50;99.90;;;10.87;100.00;97343.00;4952626;29;20687;-73
2023/08/07 02:12:33;;;;;;;0.80;0.70;;;11.50;99.90;;;10.82;100.00;97334.78;4942787;28;20458;-72
2023/08/07 02:15:00;;;;;;;0.70;0.70;;;11.50;99.90;;;10.94;100.00;97351.00;4946775;29;20466;-73
2023/08/07 02:17:29;;;;;;;2.60;0.93;;;11.50;99.90;;;10.80;100.00;97357.69;4942443;29;20463;-73
2023/08/07 02:19:57;;;;;;;0.93;0.80;;;11.40;99.90;;;10.86;100.00;97337.84;4942300;29;20855;-75
2023/08/07 02:22:24;;;;;;;2.73;0.97;;;11.40;99.90;;;10.75;100.00;97367.31;4938625;29;20521;-76
2023/08/07 02:24:52;;;;;;;0.90;0.80;;;11.40;99.90;;;10.78;100.00;97360.63;4936766;29;20462;-75
2023/08/07 02:27:19;;;;;;;1.50;0.87;;;11.40;99.90;;;10.84;100.00;97364.25;4946845;29;20474;-73
2023/08/07 02:29:47;;;;;;;2.60;0.90;;;11.40;99.90;;;10.73;100.00;97366.72;4943044;28;20539;-73
2023/08/07 02:32:15;;;;;;;1.20;0.70;;;11.40;99.90;;;10.56;100.00;97333.34;4939041;28;20470;-75
2023/08/07 02:34:42;;;;;;;0.67;0.67;;;11.40;99.90;;;10.77;100.00;97372.50;4940687;29;20459;-75
2023/08/07 02:37:09;;;;;;;0.73;0.73;;;11.40;99.90;;;10.75;100.00;97367.31;4939781;29;20453;-73
2023/08/07 02:39:36;;;;;;;1.33;0.87;;;11.40;99.90;;;10.77;100.00;97372.50;4942569;28;20465;-74
2023/08/07 02:42:04;;;;;;;1.43;0.90;;;11.30;99.90;;;10.76;100.00;97368.97;4944329;29;20466;-73
2023/08/07 02:44:31;;;;;;;1.83;1.07;;;11.40;99.90;;;10.75;100.00;97372.72;4933767;28;20465;-74
2023/08/07 02:47:00;;;;;;;1.53;1.00;;;11.30;99.90;;;10.30;100.00;97306.47;4937406;29;20487;-75
2023/08/07 02:49:27;;;;;;;1.17;0.90;;;11.30;99.90;;;10.80;100.00;97365.78;4954822;28;20507;-75
2023/08/07 02:51:54;;;;;;;1.83;1.20;;;11.40;99.90;;;10.76;100.00;97379.75;4957331;28;20448;-76
2023/08/07 02:54:22;;;;;;;0.80;0.80;;;11.40;99.90;;;10.59;100.00;97358.00;4938829;29;20456;-74
2023/08/07 02:56:49;;;;;;;1.30;1.20;;;11.30;99.90;;;10.82;100.00;97382.59;4935140;29;20464;-74
2023/08/07 02:59:17;;;;;;;1.50;1.03;;;11.40;99.90;;;10.78;100.00;97384.94;4934031;29;20489;-74
2023/08/07 03:01:45;;;;;;;1.03;1.03;;;11.30;99.90;;;10.77;100.00;97391.41;4936160;28;20464;-75
2023/08/07 03:04:13;;;;;;;1.33;1.23;;;11.30;99.90;;;10.68;100.00;97379.28;4945528;29;20481;-73
2023/08/07 03:06:40;;;;;;;0.97;0.97;;;11.30;99.90;;;10.83;100.00;97395.03;4949018;28;20490;-79
2023/08/07 03:09:07;;;;;;;1.40;1.27;;;11.40;99.90;;;10.82;100.00;97393.38;4942605;29;20463;-73
2023/08/07 03:11:35;;;;;;;2.07;1.30;;;11.40;99.90;;;10.71;100.00;97393.16;4936790;29;20453;-75
2023/08/07 03:14:03;;;;;;;1.07;1.07;;;11.30;99.90;;;10.82;100.00;97399.63;4955924;28;20547;-75
2023/08/07 03:16:30;;;;;;;1.57;1.07;;;11.40;99.90;;;10.72;100.00;97405.59;4941437;28;20454;-75
2023/08/07 03:18:57;;;;;;;3.60;1.40;;;11.30;99.90;;;10.70;100.00;97391.50;4951686;28;20859;-75
2023/08/07 03:21:26;;;;;;;2.43;1.40;;;11.30;99.90;;;10.62;100.00;97379.16;4942265;29;20452;-75
2023/08/07 03:23:54;;;;;;;1.63;1.53;;;11.40;99.90;;;10.68;100.00;97404.41;4945652;28;20583;-73
2023/08/07 03:26:21;;;;;;;1.40;1.17;;;11.30;99.90;;;10.75;100.00;97396.19;4933927;28;20520;-73
2023/08/07 03:28:48;;;;;;;3.43;1.60;;;11.30;99.90;;;10.74;100.00;97403.50;4933870;29;20452;-73
2023/08/07 03:31:16;;;;;;;5.10;1.60;;;11.30;99.90;;;10.36;100.00;97342.53;4940999;28;20466;-73
2023/08/07 03:33:43;;;;;;;1.40;1.20;;;11.30;99.90;;;10.77;100.00;97419.25;4936507;28;20487;-76
2023/08/07 03:36:11;;;;;;;2.40;2.07;;;11.30;99.90;;;10.70;100.00;97410.44;4939970;29;20509;-72
2023/08/07 03:38:39;;;;;;;1.70;1.60;;;11.30;99.90;;;10.71;100.00;97424.75;4943978;29;20508;-74
2023/08/07 03:41:07;;;;;;;3.50;2.10;;;11.30;99.90;;;10.65;100.00;97404.88;4946340;28;20449;-74
2023/08/07 03:43:34;;;;;;;2.73;1.60;;;11.30;99.90;;;10.87;100.00;97434.06;4939628;29;20489;-73
2023/08/07 03:46:01;;;;;;;1.90;1.37;;;11.30;99.90;;;10.72;100.00;97442.59;4932675;29;20764;-74
2023/08/07 03:48:28;;;;;;;2.10;1.60;;;11.30;99.90;;;10.75;100.00;97432.16;4944269;29;21837;-72
2023/08/07 03:51:04;;;;;;;1.30;1.20;;;11.30;99.90;;;10.70;100.00;97445.56;4942918;28;20894;-74
2023/08/07 03:53:31;;;;;;;3.43;2.17;;;11.30;99.90;;;10.76;100.00;97444.63;4946970;28;20507;-76
2023/08/07 03:55:59;;;;;;;1.70;1.60;;;11.30;99.90;;;10.79;100.00;97458.72;4946682;28;20513;-78
2023/08/07 03:58:27;;;;;;;3.37;2.23;;;11.30;99.90;;;10.77;100.00;97453.56;4938053;28;20450;-72
2023/08/07 04:00:54;;;;;;;1.77;1.67;;;11.30;99.90;;;10.66;100.00;97465.16;4961696;28;21522;-74
2023/08/07 04:03:21;;;;;;;2.83;1.80;;;11.30;99.90;;;10.10;100.00;97384.22;4939070;28;20470;-73
2023/08/07 04:05:53;;;;;;;3.70;2.20;;;11.20;99.90;;;10.65;100.00;97458.09;4938507;29;20470;-74
2023/08/07 04:08:20;;;;;;;2.60;1.63;;;11.20;99.90;;;10.54;100.00;97468.63;4932259;29;20482;-73
2023/08/07 04:11:01;;;;;;;5.10;2.20;;;11.20;99.90;;;10.57;100.00;97478.16;4940755;29;20467;-75
2023/08/07 04:13:29;;;;;;;2.03;1.70;;;11.20;99.90;;;10.60;100.00;97461.47;4931421;29;20525;-74
2023/08/07 04:15:56;;;;;;;2.73;2.30;;;11.20;99.90;;;10.57;100.00;97472.75;4955338;28;20468;-76
2023/08/07 04:18:23;;;;;;;1.93;1.70;;;11.20;99.90;;;10.67;100.00;97483.00;4937680;28;21221;-74
2023/08/07 04:20:52;;;;;;;2.67;1.83;;;11.20;99.90;;;10.43;100.00;97451.31;4940086;28;20464;-76
2023/08/07 04:23:19;;;;;;;2.80;2.10;;;11.20;99.90;;;10.56;100.00;97485.41;4944547;29;20498;-73
2023/08/07 04:25:47;;;;;;;3.40;2.30;;;11.20;99.90;;;10.67;100.00;97489.22;4941880;28;20453;-80
2023/08/07 04:28:17;;;;;;;2.93;2.23;;;11.20;99.90;;;10.61;100.00;97473.94;4934160;28;20843;-75
2023/08/07 04:30:45;;;;;;;2.23;2.03;;;11.20;99.90;;;10.05;100.00;97395.69;4940214;29;20454;-74
2023/08/07 04:33:12;;;;;;;2.20;2.00;;;11.20;99.90;;;10.71;100.00;97484.19;4936511;29;20627;-74
2023/08/07 04:35:40;;;;;;;2.70;2.37;;;11.20;99.90;;;10.55;100.00;97488.38;4946575;28;20521;-77
2023/08/07 04:38:07;;;;;;;3.60;2.17;;;11.20;99.90;;;10.66;100.00;97498.38;4936107;28;20448;-74
2023/08/07 04:40:34;;;;;;;5.03;2.33;;;11.20;99.90;;;10.65;100.00;97512.94;4929761;28;20444;-73
2023/08/07 04:43:02;;;;;;;3.83;2.50;;;11.20;99.90;;;10.59;100.00;97492.25;4932733;29;21392;-74
2023/08/07 04:45:30;;;;;;;3.30;2.50;;;11.20;99.90;;;10.79;100.00;97507.34;4935726;29;20455;-73
2023/08/07 04:47:58;;;;;;;6.67;2.30;;;11.30;99.90;;;10.76;100.00;97501.34;4942898;29;20595;-73
2023/08/07 04:50:25;;;;;;;3.20;1.77;;;11.30;99.90;;;10.73;100.00;97509.94;4941493;29;20464;-72
2023/08/07 04:52:52;;;;;;;3.63;2.00;;;11.20;99.90;;;10.68;100.00;97520.56;4953425;28;20450;-72
2023/08/07 04:55:19;;;;;;;2.57;2.20;;;11.30;99.90;;;10.75;100.00;97507.81;4942538;29;20474;-73
2023/08/07 04:57:47;;;;;;;4.70;2.80;;;11.30;99.90;;;10.80;100.00;97504.44;4935160;29;20608;-71
2023/08/07 05:00:15;;;;;;;5.10;2.20;;;11.30;99.90;;;10.83;100.00;97511.25;4941045;29;20548;-71
2023/08/07 05:02:44;;;;;;;3.43;2.17;;;11.40;99.90;;;10.66;100.00;97514.56;4936672;29;20464;-72
2023/08/07 05:05:11;;;;;;;2.40;2.20;;;11.30;99.90;;;10.90;100.00;97517.38;4941765;29;20670;-71
2023/08/07 05:07:38;;;;;;;8.53;3.00;;;11.30;99.90;;;10.81;100.00;97518.75;4942814;28;20536;-72
2023/08/07 05:10:07;;;;;;;3.87;2.67;;;11.30;99.90;;;11.36;100.00;97511.50;4937073;28;20513;-73
2023/08/07 05:12:34;;;;;;;2.83;2.20;;;11.50;99.90;;;10.90;100.00;97520.09;4958992;28;20494;-76
2023/08/07 05:15:01;;;;;;;3.73;2.20;;;11.50;99.90;;;10.56;100.00;97498.91;4940024;29;21050;-75
2023/08/07 05:17:29;;;;;;;2.20;2.00;;;11.40;99.90;;;10.87;100.00;97521.38;4947435;29;20477;-74
2023/08/07 05:19:57;;;;;;;6.07;2.73;;;11.40;99.90;;;11.10;100.00;97529.78;4938189;29;20514;-75
2023/08/07 05:22:25;;;;;;;2.50;1.83;;;11.50;99.90;;;10.84;100.00;97521.00;4954900;28;20971;-75
2023/08/07 05:24:52;;;;;;;3.50;2.57;;;11.40;99.90;;;10.34;100.00;97441.84;4942252;29;20957;-75
2023/08/07 05:27:19;;;;;;;5.43;2.70;;;11.50;99.90;;;10.94;100.00;97534.78;4936459;28;20482;-73
2023/08/07 05:29:46;;;;;;;4.63;2.60;;;11.50;99.90;;;10.83;100.00;97525.59;4938535;29;21078;-73
2023/08/07 05:32:15;;;;;;;2.00;1.80;;;11.50;99.90;;;10.74;100.00;97538.59;4940093;29;20476;-71
2023/08/07 05:34:43;;;;;;;3.70;2.33;;;11.40;99.90;;;10.67;100.00;97537.84;4937037;29;20971;-76
2023/08/07 05:37:11;;;;;;;4.30;2.07;;;11.30;99.90;;;10.73;100.00;97542.34;4945172;29;20476;-74
2023/08/07 05:39:39;;;;;;;4.10;2.17;;;11.30;99.90;;;10.57;100.00;97521.38;4943213;29;20464;-75
2023/08/07 05:42:07;;;;;;;3.10;2.57;;;11.30;99.90;;;10.74;100.00;97541.28;4937669;29;20550;-73
2023/08/07 05:44:35;;;;;;;4.93;2.33;;;11.30;99.90;;;10.74;100.00;97541.28;4940323;29;20550;-76
2023/08/07 05:47:02;;;;;;;7.70;2.97;;;11.30;99.90;;;10.69;100.00;97545.72;4959425;28;22094;-76
2023/08/07 05:49:29;;;;;;;6.30;3.57;;;11.30;99.90;;;10.56;100.00;97525.13;4944166;29;20939;-76
2023/08/07 05:51:56;;;;;;;4.13;2.50;;;11.30;99.90;;;10.67;100.00;97559.44;4941190;28;20986;-77
2023/08/07 05:54:25;;;;;;;3.43;2.50;;;11.30;99.90;;;10.64;100.00;97551.81;4936813;28;20547;-76
2023/08/07 05:56:52;;;;;;;2.80;2.00;;;11.20;99.90;;;10.82;100.00;97556.38;4942986;28;20564;-81
2023/08/07 05:59:19;;;;;;;1.73;1.63;;;11.30;99.90;;;10.77;100.00;97554.34;4943975;29;20469;-75
2023/08/07 06:01:46;;;;;;;2.07;1.87;;;11.30;99.90;;;10.84;100.00;97554.25;4956506;28;20451;-75
2023/08/07 06:04:14;;;;;;;1.87;1.77;;;11.30;99.90;;;10.88;100.00;97562.75;4943637;29;20960;-76
2023/08/07 06:06:42;;;;;;;3.50;1.87;;;11.40;99.90;;;10.97;100.00;97563.25;4955389;28;20510;-77
2023/08/07 06:09:10;;;;;;;4.90;2.37;;;11.50;99.90;;;10.94;100.00;97567.22;4935299;29;21230;-75
2023/08/07 06:11:38;;;;;;;4.20;2.30;;;11.50;99.90;;;10.87;100.00;97572.72;4938971;28;20476;-76
2023/08/07 06:14:05;;;;;;;3.63;2.10;;;11.40;99.90;;;10.70;100.00;97563.59;4956244;28;20818;-76
2023/08/07 06:16:33;;;;;;;1.90;1.70;;;11.30;99.90;;;10.90;100.00;97574.13;4935429;29;20466;-84
2023/08/07 06:19:00;;;;;;;4.50;2.20;;;11.40;99.90;;;10.88;100.00;97560.84;4946388;28;20495;-88
2023/08/07 06:21:28;;;;;;;4.63;2.20;;;11.40;99.90;;;10.96;100.00;97562.41;4941431;28;20453;-81
2023/08/07 06:23:56;;;;;;;4.20;2.23;;;11.50;99.90;;;10.55;100.00;97508.06;4939770;28;20548;-86
2023/08/07 06:26:23;;;;;;;3.70;2.10;;;11.50;99.90;;;10.36;100.00;97480.25;4949990;28;20465;-81
2023/08/07 06:28:52;;;;;;;3.97;2.33;;;11.40;99.90;;;10.83;99.21;97578.78;4918130;29;20479;-83
2023/08/07 06:31:19;;;;;;;2.13;1.63;;;11.40;99.90;;;10.84;100.00;97575.88;4958909;28;20461;-84
2023/08/07 06:33:49;;;;;;;3.27;1.70;;;11.40;99.90;;;10.00;99.80;97441.44;4946185;29;20469;-84
2023/08/07 06:36:17;;;;;;;2.57;2.37;;;11.40;99.90;;;10.99;99.66;97585.47;4944149;28;21231;-84
2023/08/07 06:38:45;;;;;;;2.30;2.10;;;11.40;99.90;;;10.90;98.64;97595.75;4937601;28;20447;-84
2023/08/07 06:41:13;;;;;;;3.50;2.17;;;11.50;99.90;;;10.90;99.12;97566.84;4935884;29;20454;-83
2023/08/07 06:43:40;;;;;;;2.50;1.90;;;11.50;99.90;;;10.75;98.90;97556.44;4937341;28;20468;-83
2023/08/07 06:46:10;;;;;;;2.37;2.17;;;11.60;99.90;;;11.11;99.12;97596.31;4940121;29;20460;-84
2023/08/07 06:48:39;;;;;;;3.83;2.20;;;11.60;99.90;;;11.04;97.63;97594.53;4940805;29;20554;-82
2023/08/07 06:51:06;;;;;;;2.50;1.57;;;11.60;99.90;;;10.97;97.38;97579.47;4941056;29;20472;-86
2023/08/07 06:53:37;;;;;;;3.70;1.73;;;11.60;99.90;;;10.89;98.10;97558.97;4961035;28;20459;-86
2023/08/07 06:56:08;;;;;;;2.27;2.00;;;11.70;99.90;;;10.28;98.16;97484.06;4945892;28;20521;-80
2023/08/07 06:58:36;;;;;;;2.83;2.00;;;11.60;99.90;;;10.95;97.24;97595.09;4940722;29;20477;-83
2023/08/07 07:01:03;;;;;;;2.87;2.40;;;11.60;99.40;;;10.91;97.65;97575.78;4939350;29;20479;-86
2023/08/07 07:03:32;;;;;;;2.60;2.30;;;11.70;99.90;;;11.17;96.82;97607.03;4950316;28;20465;-72
2023/08/07 07:05:59;;;;;;;1.93;1.70;;;11.70;99.50;;;11.07;96.53;97605.94;4950394;29;20974;-83
2023/08/07 07:08:26;;;;;;;2.13;1.90;;;11.70;98.90;;;10.60;97.01;97524.41;4954011;28;20478;-83
2023/08/07 07:10:54;;;;;;;3.70;2.30;;;11.70;99.30;;;11.02;97.63;97582.28;4947146;29;20449;-84
2023/08/07 07:13:21;;;;;;;3.70;2.43;;;11.70;99.90;;;11.08;96.68;97602.19;4966761;28;20825;-85
2023/08/07 07:15:55;;;;;;;2.23;1.43;;;11.70;99.10;;;11.34;95.12;97618.03;4955512;28;20546;-86
2023/08/07 07:18:22;;;;;;;1.93;1.83;;;11.70;98.70;;;11.45;94.35;97607.50;4947308;29;20455;-84
2023/08/07 07:20:58;;;;;;;3.63;2.20;;;11.80;98.70;;;11.11;95.50;97593.59;4951259;28;20457;-83
2023/08/07 07:23:29;;;;;;;7.00;1.97;;;11.80;97.90;;;11.02;95.44;97588.53;4957369;28;20587;-84
2023/08/07 07:25:58;;;;;;;3.63;1.90;;;11.80;97.70;;;10.82;95.83;97560.94;4948849;28;20866;-86
2023/08/07 07:28:25;;;;;;;2.80;2.43;;;11.80;97.90;;;11.14;94.50;97625.59;4941858;29;20476;-84
2023/08/07 07:30:52;;;;;;;4.33;2.10;;;11.80;96.40;;;11.17;95.10;97620.56;4943936;29;20460;-82
2023/08/07 07:33:20;;;;;;;2.57;1.80;;;11.90;97.60;;;11.38;95.09;97650.88;4945685;28;20460;-87
2023/08/07 07:35:47;;;;;;;3.33;2.30;;;11.90;97.70;;;11.41;94.34;97653.09;4944272;28;20460;-86
2023/08/07 07:38:18;;;;;;;2.83;2.00;;;11.90;96.80;;;11.38;93.29;97628.38;4941112;29;20456;-83
2023/08/07 07:40:45;;;;;;;3.80;2.07;;;12.00;96.40;;;11.44;92.87;97632.88;4930486;29;20563;-84
2023/08/07 07:43:12;;;;;;;3.70;2.37;;;12.10;96.00;;;11.55;92.82;97642.91;4952770;29;20483;-83
2023/08/07 07:45:42;;;;;;;5.03;2.00;;;12.10;95.60;;;11.67;91.87;97658.34;4958668;28;20456;-87
2023/08/07 07:48:09;;;;;;;4.93;2.40;;;12.20;95.10;;;11.50;91.31;97610.31;4935780;29;20477;-86
2023/08/07 07:50:39;;;;;;;2.37;2.03;;;12.30;94.80;;;11.58;90.80;97637.03;4943041;29;20977;-84
2023/08/07 07:53:06;;;;;;;3.20;2.47;;;12.30;94.30;;;11.98;91.38;97662.66;4941092;28;20460;-83
2023/08/07 07:55:35;;;;;;;4.13;2.20;;;12.40;95.50;;;11.68;91.08;97660.00;4949066;29;20472;-81
2023/08/07 07:58:03;;;;;;;2.67;1.73;;;12.30;94.00;;;11.73;92.68;97671.78;4948545;29;20918;-85
2023/08/07 08:00:30;;;;;;;4.57;2.13;;;12.20;95.30;;;11.49;92.71;97657.38;4945630;29;20482;-86
2023/08/07 08:02:59;;;;;;;2.77;1.83;;;12.20;95.40;;;11.19;91.36;97623.03;4957643;28;20482;-84
2023/08/07 08:05:26;;;;;;;4.20;1.83;;;12.20;94.40;;;11.58;91.62;97672.19;4940777;29;20450;-83
2023/08/07 08:07:54;;;;;;;3.90;2.13;;;12.20;94.80;;;11.61;91.38;97692.56;4945692;28;20483;-82
2023/08/07 08:10:22;;;;;;;4.00;2.27;;;12.20;94.50;;;11.75;92.73;97685.06;4947738;28;20898;-83
2023/08/07 08:12:51;;;;;;;4.80;2.37;;;12.30;95.90;;;11.67;91.73;97669.19;4950221;29;20488;-83
2023/08/07 08:15:21;;;;;;;3.50;2.40;;;12.30;94.90;;;11.64;91.38;97673.16;4944941;28;20480;-85
2023/08/07 08:17:48;;;;;;;2.20;2.00;;;12.30;94.80;;;11.73;91.87;97692.59;4952012;28;20540;-82
2023/08/07 08:20:18;;;;;;;3.80;2.40;;;12.30;95.00;;;11.85;91.12;97703.47;4932661;29;20453;-80
2023/08/07 08:22:47;;;;;;;3.37;2.50;;;12.40;94.50;;;11.81;90.45;97707.69;4949146;29;20503;-84
2023/08/07 08:25:15;;;;;;;3.20;2.10;;;12.40;94.30;;;11.88;89.82;97714.66;4947722;28;20503;-82
2023/08/07 08:27:43;;;;;;;4.10;2.57;;;12.40;93.90;;;12.03;91.18;97708.84;4948871;29;20473;-82
2023/08/07 08:30:14;;;;;;;3.27;2.50;;;12.50;94.80;;;11.71;89.79;97670.34;4950130;28;20488;-86
2023/08/07 08:32:46;;;;;;;3.37;2.13;;;12.50;93.60;;;11.93;89.33;97721.28;4950328;29;20464;-82
2023/08/07 08:35:16;;;;;;;3.77;2.17;;;12.50;93.60;;;11.82;89.19;97712.88;4967089;28;20547;-85
2023/08/07 08:37:43;;;;;;;2.13;1.70;;;12.40;93.10;;;11.85;88.88;97717.00;4955877;29;20492;-80
2023/08/07 08:40:16;;;;;;;4.10;2.60;;;12.40;93.10;;;11.27;89.75;97620.00;4952153;29;20991;-85
2023/08/07 08:42:46;;;;;;;2.27;1.70;;;12.40;93.90;;;11.98;88.43;97726.81;4944657;28;21008;-81
2023/08/07 08:45:17;;;;;;;4.77;2.20;;;12.50;92.90;;;12.16;88.12;97725.94;4945875;28;20479;-83
2023/08/07 08:47:46;;;;;;;3.07;2.30;;;12.60;93.10;;;12.22;88.05;97726.91;4941821;29;20484;-79
2023/08/07 08:50:15;;;;;;;2.40;2.20;;;12.70;93.10;;;12.47;86.80;97748.34;4970818;28;20451;-86
2023/08/07 08:52:45;;;;;;;2.73;2.40;;;12.90;92.60;;;12.32;85.66;97735.25;4954977;28;20451;-80
2023/08/07 08:55:14;;;;;;;2.40;1.87;;;12.90;91.60;;;12.39;85.83;97735.16;5026109;23;20542;-78
2023/08/07 08:57:42;;;;;;;3.50;2.17;;;12.90;91.50;;;12.32;84.28;97730.69;4982592;28;20461;-81
2023/08/07 09:00:17;;;;;;;2.57;1.93;;;13.00;90.90;;;12.34;84.99;97735.84;4965657;28;20854;-80
2023/08/07 09:03:01;;;;;;;2.00;1.90;;;12.90;91.50;;;12.26;84.09;97736.19;4951939;28;20551;-87
2023/08/07 09:05:43;;;;;;;4.57;1.30;;;12.90;90.70;;;11.90;85.00;97674.66;4973904;28;20504;-87
2023/08/07 09:08:14;;;;;;;2.33;2.00;;;12.90;90.90;;;11.92;83.93;97697.97;4955309;29;20507;-84
2023/08/07 09:10:42;;;;;;;2.00;1.80;;;12.80;90.60;;;12.20;85.16;97751.50;4957662;28;20876;-83
2023/08/07 09:13:15;;;;;;;2.40;1.97;;;12.80;91.20;;;12.08;84.37;97754.19;4967501;29;20471;-84
2023/08/07 09:15:50;;;;;;;2.53;1.70;;;12.80;90.80;;;12.01;85.07;97751.56;4965878;29;20522;-86
2023/08/07 09:18:21;;;;;;;3.63;1.93;;;12.70;91.00;;;11.92;84.72;97706.09;4948850;29;20853;-87
2023/08/07 09:20:53;;;;;;;2.70;2.20;;;12.80;91.30;;;12.36;84.04;97750.00;4968132;28;20907;-87
2023/08/07 09:23:21;;;;;;;4.03;2.10;;;12.90;91.10;;;12.10;83.99;97705.19;4961655;29;20559;-83
2023/08/07 09:25:48;;;;;;;1.90;1.80;;;12.90;90.90;;;12.50;82.49;97752.47;4954719;29;20459;-84
2023/08/07 09:28:15;;;;;;;6.67;1.60;;;13.00;90.40;;;12.43;82.04;97748.00;4955183;29;20488;-83
2023/08/07 09:30:44;;;;;;;2.00;1.90;;;13.10;90.10;;;12.64;82.09;97764.72;4952843;29;21007;-83
2023/08/07 09:33:11;;;;;;;2.20;1.67;;;13.10;90.20;;;11.61;81.55;97617.66;4947428;29;20467;-84
2023/08/07 09:35:41;;;;;;;2.30;1.80;;;13.10;89.80;;;12.83;82.25;97761.94;4967314;28;20469;-84
2023/08/07 09:38:12;;;;;;;3.50;1.70;;;13.30;90.30;;;12.76;81.08;97748.50;4973583;28;20463;-82
2023/08/07 09:40:39;;;;;;;1.90;1.70;;;13.40;89.50;;;12.93;80.26;97766.75;4961928;28;20439;-79
2023/08/07 09:43:08;;;;;;;2.30;1.97;;;13.50;89.00;;;12.93;80.07;97783.81;4957088;29;20500;-83
2023/08/07 09:45:36;;;;;;;2.07;1.67;;;13.50;89.00;;;12.82;80.47;97776.53;4961496;29;20461;-81
2023/08/07 09:48:07;;;;;;;1.50;1.40;;;13.40;88.80;;;13.12;80.24;97772.88;4956245;29;20477;-88
2023/08/07 09:50:34;;;;;;;2.93;1.70;;;13.50;89.50;;;13.08;80.34;97775.22;4962333;29;20472;-80
2023/08/07 09:53:04;;;;;;;2.27;1.50;;;13.60;89.40;;;12.94;80.56;97795.50;4968210;29;20472;-80
2023/08/07 09:55:33;;;;;;;3.13;1.80;;;13.60;88.90;;;12.83;82.29;97783.63;4964498;28;20552;-76
2023/08/07 09:58:02;;;;;;;3.33;1.70;;;13.40;90.00;;;12.88;81.44;97791.84;4962089;28;20468;-80
2023/08/07 10:00:35;;;;;;;1.80;1.70;;;13.40;89.50;;;13.20;81.31;97794.19;4963307;28;20549;-77
2023/08/07 10:03:04;;;;;;;2.17;1.70;;;13.60;90.10;;;12.87;80.38;97782.06;4967933;28;20832;-82
2023/08/07 10:05:34;;;;;;;1.47;1.37;;;13.50;88.80;;;12.78;80.67;97802.44;4974686;28;20533;-81
2023/08/07 10:08:03;;;;;;;1.67;1.57;;;13.40;88.60;;;12.75;80.96;97796.44;4968199;28;20458;-83
2023/08/07 10:10:33;;;;;;;2.70;1.57;;;13.40;88.90;;;13.04;80.55;97812.84;4972450;28;20453;-84
2023/08/07 10:13:02;;;;;;;1.67;1.30;;;13.50;89.40;;;13.12;80.62;97792.66;4977350;28;20436;-81
2023/08/07 10:15:30;;;;;;;4.37;1.80;;;13.60;89.40;;;13.14;79.55;97811.41;4974236;28;20576;-79
2023/08/07 10:17:57;;;;;;;2.83;1.90;;;13.60;88.50;;;13.03;80.00;97811.19;4967986;28;20455;-81
2023/08/07 10:20:28;;;;;;;4.33;2.47;;;13.60;88.60;;;13.15;81.49;97808.47;4967093;28;20496;-84